sensor_id;sensor_type;location;lat;lon;timestamp;temperature;humidity
27266;DHT22;14766;51.380;13.762;2023-05-07T00:02:01;15.30;61.40
27266;DHT22;14766;51.380;13.762;2023-05-07T00:04:30;15.40;61.60
27266;DHT22;14766;51.380;13.762;2023-05-07T00:07:03;15.40;61.60
27266;DHT22;14766;51.380;13.762;2023-05-07T00:09:30;15.40;61.50
27266;DHT22;14766;51.380;13.762;2023-05-07T00:11:57;15.40;61.50
27266;DHT22;14766;51.380;13.762;2023-05-07T00:14:24;15.40;61.40
27266;DHT22;14766;51.380;13.762;2023-05-07T00:16:51;15.40;61.50
27266;DHT22;14766;51.380;13.762;2023-05-07T00:19:19;15.30;61.40
27266;DHT22;14766;51.380;13.762;2023-05-07T00:21:47;15.40;61.40
27266;DHT22;14766;51.380;13.762;2023-05-07T00:24:15;15.30;61.30
27266;DHT22;14766;51.380;13.762;2023-05-07T00:26:42;15.30;61.30
27266;DHT22;14766;51.380;13.762;2023-05-07T00:29:09;15.30;61.30
27266;DHT22;14766;51.380;13.762;2023-05-07T00:31:36;15.30;61.20
27266;DHT22;14766;51.380;13.762;2023-05-07T00:34:03;15.20;61.40
27266;DHT22;14766;51.380;13.762;2023-05-07T00:36:30;15.20;61.70
27266;DHT22;14766;51.380;13.762;2023-05-07T00:38:59;15.10;61.60
27266;DHT22;14766;51.380;13.762;2023-05-07T00:41:27;15.10;61.80
27266;DHT22;14766;51.380;13.762;2023-05-07T00:43:54;15.20;62.00
27266;DHT22;14766;51.380;13.762;2023-05-07T00:46:21;15.20;62.00
27266;DHT22;14766;51.380;13.762;2023-05-07T00:48:53;15.20;62.00
27266;DHT22;14766;51.380;13.762;2023-05-07T00:51:20;15.20;62.00
27266;DHT22;14766;51.380;13.762;2023-05-07T00:53:47;15.20;62.00
27266;DHT22;14766;51.380;13.762;2023-05-07T00:56:14;15.10;61.80
27266;DHT22;14766;51.380;13.762;2023-05-07T00:58:42;15.10;61.80
27266;DHT22;14766;51.380;13.762;2023-05-07T01:01:09;15.10;61.90
27266;DHT22;14766;51.380;13.762;2023-05-07T01:03:36;15.10;61.90
27266;DHT22;14766;51.380;13.762;2023-05-07T01:06:05;15.10;62.10
27266;DHT22;14766;51.380;13.762;2023-05-07T01:08:33;15.10;62.20
27266;DHT22;14766;51.380;13.762;2023-05-07T01:11:01;15.10;62.40
27266;DHT22;14766;51.380;13.762;2023-05-07T01:13:29;15.00;62.50
27266;DHT22;14766;51.380;13.762;2023-05-07T01:15:56;15.00;62.60
27266;DHT22;14766;51.380;13.762;2023-05-07T01:18:23;15.00;62.40
27266;DHT22;14766;51.380;13.762;2023-05-07T01:20:52;15.00;62.50
27266;DHT22;14766;51.380;13.762;2023-05-07T01:23:20;15.00;62.50
27266;DHT22;14766;51.380;13.762;2023-05-07T01:25:54;15.00;62.50
27266;DHT22;14766;51.380;13.762;2023-05-07T01:28:24;15.00;62.40
27266;DHT22;14766;51.380;13.762;2023-05-07T01:31:00;14.90;62.30
27266;DHT22;14766;51.380;13.762;2023-05-07T01:33:31;14.90;62.30
27266;DHT22;14766;51.380;13.762;2023-05-07T01:36:00;14.90;62.50
27266;DHT22;14766;51.380;13.762;2023-05-07T01:38:30;14.90;62.60
27266;DHT22;14766;51.380;13.762;2023-05-07T01:40:58;14.90;62.60
27266;DHT22;14766;51.380;13.762;2023-05-07T01:43:25;14.90;62.50
27266;DHT22;14766;51.380;13.762;2023-05-07T01:45:53;14.80;62.60
27266;DHT22;14766;51.380;13.762;2023-05-07T01:48:20;14.80;62.60
27266;DHT22;14766;51.380;13.762;2023-05-07T01:50:48;14.90;62.90
27266;DHT22;14766;51.380;13.762;2023-05-07T01:53:15;14.80;62.90
27266;DHT22;14766;51.380;13.762;2023-05-07T01:55:42;14.80;63.10
27266;DHT22;14766;51.380;13.762;2023-05-07T01:58:10;14.80;63.00
27266;DHT22;14766;51.380;13.762;2023-05-07T02:00:37;14.80;63.00
27266;DHT22;14766;51.380;13.762;2023-05-07T02:03:06;14.80;63.00
27266;DHT22;14766;51.380;13.762;2023-05-07T02:05:41;14.70;63.00
27266;DHT22;14766;51.380;13.762;2023-05-07T02:08:18;14.70;63.00
27266;DHT22;14766;51.380;13.762;2023-05-07T02:10:45;14.60;63.00
27266;DHT22;14766;51.380;13.762;2023-05-07T02:13:13;14.60;63.30
27266;DHT22;14766;51.380;13.762;2023-05-07T02:15:40;14.60;63.40
27266;DHT22;14766;51.380;13.762;2023-05-07T02:18:08;14.50;63.40
27266;DHT22;14766;51.380;13.762;2023-05-07T02:20:36;14.50;63.20
27266;DHT22;14766;51.380;13.762;2023-05-07T02:23:03;14.50;62.90
27266;DHT22;14766;51.380;13.762;2023-05-07T02:25:30;14.40;62.70
27266;DHT22;14766;51.380;13.762;2023-05-07T02:27:58;14.40;62.80
27266;DHT22;14766;51.380;13.762;2023-05-07T02:30:58;14.40;62.80
27266;DHT22;14766;51.380;13.762;2023-05-07T02:33:27;14.30;62.80
27266;DHT22;14766;51.380;13.762;2023-05-07T02:35:55;14.30;62.70
27266;DHT22;14766;51.380;13.762;2023-05-07T02:38:23;14.30;62.90
27266;DHT22;14766;51.380;13.762;2023-05-07T02:40:50;14.30;62.90
27266;DHT22;14766;51.380;13.762;2023-05-07T02:43:42;14.20;62.90
27266;DHT22;14766;51.380;13.762;2023-05-07T02:46:10;14.20;63.10
27266;DHT22;14766;51.380;13.762;2023-05-07T02:48:43;14.10;63.10
27266;DHT22;14766;51.380;13.762;2023-05-07T02:51:11;14.10;63.10
27266;DHT22;14766;51.380;13.762;2023-05-07T02:53:40;14.10;63.30
27266;DHT22;14766;51.380;13.762;2023-05-07T02:56:07;14.10;63.30
27266;DHT22;14766;51.380;13.762;2023-05-07T02:58:34;14.00;63.20
27266;DHT22;14766;51.380;13.762;2023-05-07T03:01:03;14.00;63.20
27266;DHT22;14766;51.380;13.762;2023-05-07T03:03:35;14.00;63.20
27266;DHT22;14766;51.380;13.762;2023-05-07T03:06:04;14.00;63.10
27266;DHT22;14766;51.380;13.762;2023-05-07T03:08:32;13.90;63.10
27266;DHT22;14766;51.380;13.762;2023-05-07T03:11:00;13.90;63.10
27266;DHT22;14766;51.380;13.762;2023-05-07T03:13:28;13.90;63.10
27266;DHT22;14766;51.380;13.762;2023-05-07T03:15:56;13.90;63.20
27266;DHT22;14766;51.380;13.762;2023-05-07T03:18:23;13.90;63.20
27266;DHT22;14766;51.380;13.762;2023-05-07T03:20:51;13.90;63.10
27266;DHT22;14766;51.380;13.762;2023-05-07T03:23:18;13.90;63.20
27266;DHT22;14766;51.380;13.762;2023-05-07T03:25:47;13.90;63.20
27266;DHT22;14766;51.380;13.762;2023-05-07T03:28:14;13.90;63.30
27266;DHT22;14766;51.380;13.762;2023-05-07T03:30:50;13.90;63.20
27266;DHT22;14766;51.380;13.762;2023-05-07T03:33:18;13.90;63.50
27266;DHT22;14766;51.380;13.762;2023-05-07T03:35:46;13.90;62.90
27266;DHT22;14766;51.380;13.762;2023-05-07T03:38:19;13.90;62.80
27266;DHT22;14766;51.380;13.762;2023-05-07T03:40:46;14.00;63.10
27266;DHT22;14766;51.380;13.762;2023-05-07T03:43:14;14.00;62.90
27266;DHT22;14766;51.380;13.762;2023-05-07T03:45:45;14.00;62.80
27266;DHT22;14766;51.380;13.762;2023-05-07T03:48:18;14.00;62.80
27266;DHT22;14766;51.380;13.762;2023-05-07T03:50:48;13.90;62.60
27266;DHT22;14766;51.380;13.762;2023-05-07T03:53:17;13.90;62.70
27266;DHT22;14766;51.380;13.762;2023-05-07T03:55:44;13.90;62.70
27266;DHT22;14766;51.380;13.762;2023-05-07T03:58:12;13.90;62.80
27266;DHT22;14766;51.380;13.762;2023-05-07T04:00:39;13.80;62.90
27266;DHT22;14766;51.380;13.762;2023-05-07T04:03:27;13.90;63.10
27266;DHT22;14766;51.380;13.762;2023-05-07T04:05:57;13.80;63.00
27266;DHT22;14766;51.380;13.762;2023-05-07T04:08:25;13.80;63.00
27266;DHT22;14766;51.380;13.762;2023-05-07T04:10:57;13.80;63.10
27266;DHT22;14766;51.380;13.762;2023-05-07T04:13:30;13.80;63.30
27266;DHT22;14766;51.380;13.762;2023-05-07T04:16:01;13.80;63.40
27266;DHT22;14766;51.380;13.762;2023-05-07T04:18:29;13.80;63.60
27266;DHT22;14766;51.380;13.762;2023-05-07T04:20:56;13.80;63.70
27266;DHT22;14766;51.380;13.762;2023-05-07T04:23:23;13.80;63.80
27266;DHT22;14766;51.380;13.762;2023-05-07T04:25:50;13.90;63.60
27266;DHT22;14766;51.380;13.762;2023-05-07T04:28:24;13.90;63.60
27266;DHT22;14766;51.380;13.762;2023-05-07T04:30:51;13.90;63.60
27266;DHT22;14766;51.380;13.762;2023-05-07T04:33:20;13.90;63.50
27266;DHT22;14766;51.380;13.762;2023-05-07T04:35:48;13.90;63.60
27266;DHT22;14766;51.380;13.762;2023-05-07T04:38:15;13.80;63.70
27266;DHT22;14766;51.380;13.762;2023-05-07T04:40:44;13.90;63.60
27266;DHT22;14766;51.380;13.762;2023-05-07T04:43:15;13.90;63.60
27266;DHT22;14766;51.380;13.762;2023-05-07T04:45:49;13.90;63.60
27266;DHT22;14766;51.380;13.762;2023-05-07T04:48:16;13.90;63.60
27266;DHT22;14766;51.380;13.762;2023-05-07T04:50:50;13.90;63.60
27266;DHT22;14766;51.380;13.762;2023-05-07T04:53:18;13.90;63.60
27266;DHT22;14766;51.380;13.762;2023-05-07T04:55:47;13.90;63.70
27266;DHT22;14766;51.380;13.762;2023-05-07T04:58:14;13.90;63.60
27266;DHT22;14766;51.380;13.762;2023-05-07T05:00:44;13.90;63.60
27266;DHT22;14766;51.380;13.762;2023-05-07T05:03:12;13.90;63.60
27266;DHT22;14766;51.380;13.762;2023-05-07T05:05:39;13.90;63.70
27266;DHT22;14766;51.380;13.762;2023-05-07T05:08:06;13.90;63.70
27266;DHT22;14766;51.380;13.762;2023-05-07T05:10:37;13.90;63.60
27266;DHT22;14766;51.380;13.762;2023-05-07T05:13:05;13.90;63.60
27266;DHT22;14766;51.380;13.762;2023-05-07T05:15:32;14.00;63.70
27266;DHT22;14766;51.380;13.762;2023-05-07T05:18:01;14.00;63.80
27266;DHT22;14766;51.380;13.762;2023-05-07T05:20:29;14.00;63.50
27266;DHT22;14766;51.380;13.762;2023-05-07T05:22:56;14.00;63.20
27266;DHT22;14766;51.380;13.762;2023-05-07T05:25:23;14.10;63.20
27266;DHT22;14766;51.380;13.762;2023-05-07T05:27:51;14.10;63.10
27266;DHT22;14766;51.380;13.762;2023-05-07T05:30:18;14.10;63.00
27266;DHT22;14766;51.380;13.762;2023-05-07T05:32:47;14.10;63.00
27266;DHT22;14766;51.380;13.762;2023-05-07T05:35:14;14.10;62.80
27266;DHT22;14766;51.380;13.762;2023-05-07T05:37:42;14.10;62.80
27266;DHT22;14766;51.380;13.762;2023-05-07T05:40:10;14.20;62.90
27266;DHT22;14766;51.380;13.762;2023-05-07T05:42:37;14.10;62.70
27266;DHT22;14766;51.380;13.762;2023-05-07T05:45:05;14.20;62.40
27266;DHT22;14766;51.380;13.762;2023-05-07T05:47:34;14.20;62.40
27266;DHT22;14766;51.380;13.762;2023-05-07T05:50:01;14.20;62.40
27266;DHT22;14766;51.380;13.762;2023-05-07T05:52:29;14.10;62.50
27266;DHT22;14766;51.380;13.762;2023-05-07T05:54:56;14.20;62.60
27266;DHT22;14766;51.380;13.762;2023-05-07T05:57:24;14.20;62.40
27266;DHT22;14766;51.380;13.762;2023-05-07T05:59:54;14.20;62.40
27266;DHT22;14766;51.380;13.762;2023-05-07T06:02:23;14.20;62.60
27266;DHT22;14766;51.380;13.762;2023-05-07T06:04:51;14.20;62.40
27266;DHT22;14766;51.380;13.762;2023-05-07T06:07:20;14.20;62.00
27266;DHT22;14766;51.380;13.762;2023-05-07T06:09:49;14.20;61.90
27266;DHT22;14766;51.380;13.762;2023-05-07T06:12:16;14.20;61.80
27266;DHT22;14766;51.380;13.762;2023-05-07T06:14:44;14.20;61.80
27266;DHT22;14766;51.380;13.762;2023-05-07T06:17:12;14.20;61.80
27266;DHT22;14766;51.380;13.762;2023-05-07T06:19:39;14.10;61.60
27266;DHT22;14766;51.380;13.762;2023-05-07T06:22:09;14.10;61.40
27266;DHT22;14766;51.380;13.762;2023-05-07T06:24:37;14.10;61.60
27266;DHT22;14766;51.380;13.762;2023-05-07T06:27:05;14.10;61.60
27266;DHT22;14766;51.380;13.762;2023-05-07T06:29:33;14.10;61.80
27266;DHT22;14766;51.380;13.762;2023-05-07T06:32:12;14.10;61.80
27266;DHT22;14766;51.380;13.762;2023-05-07T06:34:42;14.10;61.50
27266;DHT22;14766;51.380;13.762;2023-05-07T06:37:09;14.10;61.60
27266;DHT22;14766;51.380;13.762;2023-05-07T06:39:51;14.10;61.70
27266;DHT22;14766;51.380;13.762;2023-05-07T06:42:19;14.10;61.50
27266;DHT22;14766;51.380;13.762;2023-05-07T06:44:48;14.10;61.00
27266;DHT22;14766;51.380;13.762;2023-05-07T06:47:17;14.10;61.10
27266;DHT22;14766;51.380;13.762;2023-05-07T06:49:48;14.10;61.20
27266;DHT22;14766;51.380;13.762;2023-05-07T06:52:17;14.10;61.40
27266;DHT22;14766;51.380;13.762;2023-05-07T06:54:46;14.10;61.40
27266;DHT22;14766;51.380;13.762;2023-05-07T06:57:16;14.10;61.20
27266;DHT22;14766;51.380;13.762;2023-05-07T06:59:45;14.00;61.10
27266;DHT22;14766;51.380;13.762;2023-05-07T07:02:13;14.00;61.10
27266;DHT22;14766;51.380;13.762;2023-05-07T07:04:46;14.00;61.30
27266;DHT22;14766;51.380;13.762;2023-05-07T07:07:13;14.00;61.40
27266;DHT22;14766;51.380;13.762;2023-05-07T07:09:43;14.00;61.40
27266;DHT22;14766;51.380;13.762;2023-05-07T07:12:12;14.00;61.40
27266;DHT22;14766;51.380;13.762;2023-05-07T07:14:40;14.00;61.20
27266;DHT22;14766;51.380;13.762;2023-05-07T07:17:08;14.00;61.00
27266;DHT22;14766;51.380;13.762;2023-05-07T07:19:36;14.00;60.70
27266;DHT22;14766;51.380;13.762;2023-05-07T07:22:04;14.00;60.70
27266;DHT22;14766;51.380;13.762;2023-05-07T07:24:32;14.00;60.70
27266;DHT22;14766;51.380;13.762;2023-05-07T07:27:03;13.90;60.90
27266;DHT22;14766;51.380;13.762;2023-05-07T07:29:32;13.90;61.20
27266;DHT22;14766;51.380;13.762;2023-05-07T07:31:59;13.90;61.30
27266;DHT22;14766;51.380;13.762;2023-05-07T07:34:27;13.90;61.40
27266;DHT22;14766;51.380;13.762;2023-05-07T07:36:54;13.80;61.30
27266;DHT22;14766;51.380;13.762;2023-05-07T07:39:23;13.80;61.40
27266;DHT22;14766;51.380;13.762;2023-05-07T07:41:53;13.90;61.60
27266;DHT22;14766;51.380;13.762;2023-05-07T07:44:21;13.80;61.60
27266;DHT22;14766;51.380;13.762;2023-05-07T07:46:55;13.90;61.80
27266;DHT22;14766;51.380;13.762;2023-05-07T07:49:24;13.90;61.60
27266;DHT22;14766;51.380;13.762;2023-05-07T07:51:52;13.90;61.50
27266;DHT22;14766;51.380;13.762;2023-05-07T07:54:20;13.90;61.40
27266;DHT22;14766;51.380;13.762;2023-05-07T07:56:48;13.90;61.30
27266;DHT22;14766;51.380;13.762;2023-05-07T07:59:15;13.90;61.20
27266;DHT22;14766;51.380;13.762;2023-05-07T08:01:46;13.90;61.50
27266;DHT22;14766;51.380;13.762;2023-05-07T08:04:15;13.90;61.70
27266;DHT22;14766;51.380;13.762;2023-05-07T08:06:43;13.90;61.80
27266;DHT22;14766;51.380;13.762;2023-05-07T08:09:10;13.90;61.20
27266;DHT22;14766;51.380;13.762;2023-05-07T08:11:39;14.00;61.00
27266;DHT22;14766;51.380;13.762;2023-05-07T08:14:07;14.00;60.90
27266;DHT22;14766;51.380;13.762;2023-05-07T08:16:34;14.00;60.70
27266;DHT22;14766;51.380;13.762;2023-05-07T08:19:01;14.10;60.50
27266;DHT22;14766;51.380;13.762;2023-05-07T08:21:28;14.10;60.30
27266;DHT22;14766;51.380;13.762;2023-05-07T08:24:00;14.00;60.10
27266;DHT22;14766;51.380;13.762;2023-05-07T08:26:28;14.00;60.10
27266;DHT22;14766;51.380;13.762;2023-05-07T08:28:55;14.00;60.20
27266;DHT22;14766;51.380;13.762;2023-05-07T08:31:24;14.00;60.40
27266;DHT22;14766;51.380;13.762;2023-05-07T08:33:51;14.10;60.70
27266;DHT22;14766;51.380;13.762;2023-05-07T08:36:18;14.10;61.10
27266;DHT22;14766;51.380;13.762;2023-05-07T08:38:46;14.10;60.80
27266;DHT22;14766;51.380;13.762;2023-05-07T08:41:13;14.10;60.50
27266;DHT22;14766;51.380;13.762;2023-05-07T08:43:49;14.10;60.50
27266;DHT22;14766;51.380;13.762;2023-05-07T08:46:20;14.10;60.50
27266;DHT22;14766;51.380;13.762;2023-05-07T08:48:50;14.00;60.40
27266;DHT22;14766;51.380;13.762;2023-05-07T08:51:20;14.10;60.70
27266;DHT22;14766;51.380;13.762;2023-05-07T08:53:49;14.10;60.40
27266;DHT22;14766;51.380;13.762;2023-05-07T08:56:23;14.10;60.70
27266;DHT22;14766;51.380;13.762;2023-05-07T08:58:51;14.10;60.50
27266;DHT22;14766;51.380;13.762;2023-05-07T09:01:24;14.10;60.40
27266;DHT22;14766;51.380;13.762;2023-05-07T09:03:53;14.10;60.70
27266;DHT22;14766;51.380;13.762;2023-05-07T09:06:22;14.10;60.70
27266;DHT22;14766;51.380;13.762;2023-05-07T09:08:51;14.10;60.80
27266;DHT22;14766;51.380;13.762;2023-05-07T09:11:23;14.10;60.40
27266;DHT22;14766;51.380;13.762;2023-05-07T09:13:55;14.10;60.50
27266;DHT22;14766;51.380;13.762;2023-05-07T09:16:25;14.10;60.20
27266;DHT22;14766;51.380;13.762;2023-05-07T09:18:54;14.10;60.30
27266;DHT22;14766;51.380;13.762;2023-05-07T09:21:22;14.20;60.40
27266;DHT22;14766;51.380;13.762;2023-05-07T09:23:53;14.20;60.30
27266;DHT22;14766;51.380;13.762;2023-05-07T09:26:24;14.20;60.30
27266;DHT22;14766;51.380;13.762;2023-05-07T09:28:52;14.20;60.30
27266;DHT22;14766;51.380;13.762;2023-05-07T09:31:20;14.20;60.10
27266;DHT22;14766;51.380;13.762;2023-05-07T09:33:48;14.30;60.00
27266;DHT22;14766;51.380;13.762;2023-05-07T09:36:17;14.30;59.90
27266;DHT22;14766;51.380;13.762;2023-05-07T09:38:45;14.40;60.10
27266;DHT22;14766;51.380;13.762;2023-05-07T09:41:13;14.40;60.80
27266;DHT22;14766;51.380;13.762;2023-05-07T09:43:54;14.40;59.30
27266;DHT22;14766;51.380;13.762;2023-05-07T09:46:28;14.40;59.20
27266;DHT22;14766;51.380;13.762;2023-05-07T09:48:58;14.50;59.50
27266;DHT22;14766;51.380;13.762;2023-05-07T09:51:41;14.50;59.60
27266;DHT22;14766;51.380;13.762;2023-05-07T09:54:11;14.50;59.20
27266;DHT22;14766;51.380;13.762;2023-05-07T09:56:45;14.60;59.20
27266;DHT22;14766;51.380;13.762;2023-05-07T09:59:14;14.60;58.80
27266;DHT22;14766;51.380;13.762;2023-05-07T10:01:44;14.60;58.40
27266;DHT22;14766;51.380;13.762;2023-05-07T10:04:14;14.70;58.60
27266;DHT22;14766;51.380;13.762;2023-05-07T10:06:43;14.70;58.60
27266;DHT22;14766;51.380;13.762;2023-05-07T10:09:13;14.70;58.90
27266;DHT22;14766;51.380;13.762;2023-05-07T10:11:42;14.80;58.70
27266;DHT22;14766;51.380;13.762;2023-05-07T10:14:11;14.80;58.50
27266;DHT22;14766;51.380;13.762;2023-05-07T10:16:41;14.90;58.50
27266;DHT22;14766;51.380;13.762;2023-05-07T10:19:12;14.90;57.70
27266;DHT22;14766;51.380;13.762;2023-05-07T10:21:51;14.90;57.90
27266;DHT22;14766;51.380;13.762;2023-05-07T10:24:32;15.00;57.50
27266;DHT22;14766;51.380;13.762;2023-05-07T10:27:07;15.00;57.20
27266;DHT22;14766;51.380;13.762;2023-05-07T10:34:47;15.00;57.60
27266;DHT22;14766;51.380;13.762;2023-05-07T10:37:16;15.00;57.40
27266;DHT22;14766;51.380;13.762;2023-05-07T10:39:44;15.00;57.70
27266;DHT22;14766;51.380;13.762;2023-05-07T10:42:13;15.10;57.80
27266;DHT22;14766;51.380;13.762;2023-05-07T10:44:46;15.10;57.60
27266;DHT22;14766;51.380;13.762;2023-05-07T10:47:21;15.10;57.60
27266;DHT22;14766;51.380;13.762;2023-05-07T10:52:24;15.20;57.90
27266;DHT22;14766;51.380;13.762;2023-05-07T10:57:51;15.30;57.80
27266;DHT22;14766;51.380;13.762;2023-05-07T11:03:08;15.30;57.60
27266;DHT22;14766;51.380;13.762;2023-05-07T11:09:05;15.40;57.60
27266;DHT22;14766;51.380;13.762;2023-05-07T11:11:45;15.40;57.50
27266;DHT22;14766;51.380;13.762;2023-05-07T11:17:11;15.50;57.40
27266;DHT22;14766;51.380;13.762;2023-05-07T11:19:54;15.50;57.60
27266;DHT22;14766;51.380;13.762;2023-05-07T11:22:53;15.50;57.40
27266;DHT22;14766;51.380;13.762;2023-05-07T11:25:33;15.60;57.00
27266;DHT22;14766;51.380;13.762;2023-05-07T11:28:12;15.60;56.60
27266;DHT22;14766;51.380;13.762;2023-05-07T11:30:46;15.50;56.60
27266;DHT22;14766;51.380;13.762;2023-05-07T11:33:19;15.50;56.40
27266;DHT22;14766;51.380;13.762;2023-05-07T11:35:49;15.40;56.60
27266;DHT22;14766;51.380;13.762;2023-05-07T11:38:19;15.40;56.90
27266;DHT22;14766;51.380;13.762;2023-05-07T11:40:52;15.40;57.10
27266;DHT22;14766;51.380;13.762;2023-05-07T11:43:19;15.40;57.30
27266;DHT22;14766;51.380;13.762;2023-05-07T11:45:47;15.40;57.20
27266;DHT22;14766;51.380;13.762;2023-05-07T11:48:15;15.50;57.10
27266;DHT22;14766;51.380;13.762;2023-05-07T11:50:54;15.50;56.80
27266;DHT22;14766;51.380;13.762;2023-05-07T11:53:37;15.50;56.80
27266;DHT22;14766;51.380;13.762;2023-05-07T11:56:12;15.60;57.10
27266;DHT22;14766;51.380;13.762;2023-05-07T11:58:40;15.60;56.40
27266;DHT22;14766;51.380;13.762;2023-05-07T12:01:08;15.70;55.70
27266;DHT22;14766;51.380;13.762;2023-05-07T12:03:36;15.70;55.90
27266;DHT22;14766;51.380;13.762;2023-05-07T12:06:08;15.70;55.70
27266;DHT22;14766;51.380;13.762;2023-05-07T12:08:40;15.70;55.30
27266;DHT22;14766;51.380;13.762;2023-05-07T12:11:29;15.80;55.00
27266;DHT22;14766;51.380;13.762;2023-05-07T12:13:55;15.80;55.60
27266;DHT22;14766;51.380;13.762;2023-05-07T12:16:26;15.80;55.30
27266;DHT22;14766;51.380;13.762;2023-05-07T12:18:54;15.90;55.10
27266;DHT22;14766;51.380;13.762;2023-05-07T12:21:22;15.90;54.90
27266;DHT22;14766;51.380;13.762;2023-05-07T12:23:50;16.00;54.80
27266;DHT22;14766;51.380;13.762;2023-05-07T12:26:19;16.00;54.70
27266;DHT22;14766;51.380;13.762;2023-05-07T12:28:50;16.00;54.10
27266;DHT22;14766;51.380;13.762;2023-05-07T12:31:17;16.00;53.90
27266;DHT22;14766;51.380;13.762;2023-05-07T12:33:45;16.10;54.00
27266;DHT22;14766;51.380;13.762;2023-05-07T12:36:13;16.10;53.90
27266;DHT22;14766;51.380;13.762;2023-05-07T12:38:40;16.10;54.20
27266;DHT22;14766;51.380;13.762;2023-05-07T12:41:09;16.10;54.50
27266;DHT22;14766;51.380;13.762;2023-05-07T12:43:38;16.20;54.90
27266;DHT22;14766;51.380;13.762;2023-05-07T12:46:07;16.20;54.30
27266;DHT22;14766;51.380;13.762;2023-05-07T12:48:37;16.20;54.30
27266;DHT22;14766;51.380;13.762;2023-05-07T12:51:05;16.30;54.10
27266;DHT22;14766;51.380;13.762;2023-05-07T12:53:32;16.30;54.00
27266;DHT22;14766;51.380;13.762;2023-05-07T12:56:00;16.40;53.90
27266;DHT22;14766;51.380;13.762;2023-05-07T12:58:31;16.40;54.00
27266;DHT22;14766;51.380;13.762;2023-05-07T13:01:01;16.50;54.00
27266;DHT22;14766;51.380;13.762;2023-05-07T13:03:33;16.60;54.00
27266;DHT22;14766;51.380;13.762;2023-05-07T13:06:04;16.60;53.70
27266;DHT22;14766;51.380;13.762;2023-05-07T13:08:34;16.60;53.60
27266;DHT22;14766;51.380;13.762;2023-05-07T13:11:04;16.60;53.10
27266;DHT22;14766;51.380;13.762;2023-05-07T13:13:33;16.60;53.10
27266;DHT22;14766;51.380;13.762;2023-05-07T13:16:02;16.60;53.40
27266;DHT22;14766;51.380;13.762;2023-05-07T13:18:30;16.60;53.40
27266;DHT22;14766;51.380;13.762;2023-05-07T13:20:58;16.50;53.70
27266;DHT22;14766;51.380;13.762;2023-05-07T13:23:25;16.50;54.10
27266;DHT22;14766;51.380;13.762;2023-05-07T13:25:53;16.50;54.10
27266;DHT22;14766;51.380;13.762;2023-05-07T13:28:21;16.40;54.20
27266;DHT22;14766;51.380;13.762;2023-05-07T13:30:49;16.40;54.60
27266;DHT22;14766;51.380;13.762;2023-05-07T13:33:16;16.40;54.60
27266;DHT22;14766;51.380;13.762;2023-05-07T13:35:44;16.30;54.50
27266;DHT22;14766;51.380;13.762;2023-05-07T13:38:12;16.30;54.40
27266;DHT22;14766;51.380;13.762;2023-05-07T13:40:40;16.20;54.40
27266;DHT22;14766;51.380;13.762;2023-05-07T13:43:07;16.20;54.80
27266;DHT22;14766;51.380;13.762;2023-05-07T13:45:34;16.20;54.80
27266;DHT22;14766;51.380;13.762;2023-05-07T13:48:01;16.20;54.70
27266;DHT22;14766;51.380;13.762;2023-05-07T13:50:29;16.20;55.10
27266;DHT22;14766;51.380;13.762;2023-05-07T13:52:56;16.20;54.70
27266;DHT22;14766;51.380;13.762;2023-05-07T13:55:24;16.20;54.60
27266;DHT22;14766;51.380;13.762;2023-05-07T13:58:01;16.20;54.60
27266;DHT22;14766;51.380;13.762;2023-05-07T14:00:33;16.20;54.70
27266;DHT22;14766;51.380;13.762;2023-05-07T14:03:00;16.10;54.90
27266;DHT22;14766;51.380;13.762;2023-05-07T14:05:27;16.20;54.90
27266;DHT22;14766;51.380;13.762;2023-05-07T14:07:56;16.10;54.90
27266;DHT22;14766;51.380;13.762;2023-05-07T14:10:24;16.10;55.10
27266;DHT22;14766;51.380;13.762;2023-05-07T14:12:51;16.10;55.00
27266;DHT22;14766;51.380;13.762;2023-05-07T14:15:19;16.10;55.20
27266;DHT22;14766;51.380;13.762;2023-05-07T14:17:48;16.10;54.70
27266;DHT22;14766;51.380;13.762;2023-05-07T14:20:15;16.10;54.60
27266;DHT22;14766;51.380;13.762;2023-05-07T14:22:42;16.00;54.40
27266;DHT22;14766;51.380;13.762;2023-05-07T14:25:09;16.10;54.50
27266;DHT22;14766;51.380;13.762;2023-05-07T14:27:37;16.00;54.40
27266;DHT22;14766;51.380;13.762;2023-05-07T14:30:04;16.00;54.60
27266;DHT22;14766;51.380;13.762;2023-05-07T14:32:33;16.00;54.60
27266;DHT22;14766;51.380;13.762;2023-05-07T14:35:00;16.00;54.50
27266;DHT22;14766;51.380;13.762;2023-05-07T14:37:27;15.90;54.30
27266;DHT22;14766;51.380;13.762;2023-05-07T14:39:54;15.90;54.50
27266;DHT22;14766;51.380;13.762;2023-05-07T14:42:21;15.90;54.10
27266;DHT22;14766;51.380;13.762;2023-05-07T14:44:48;15.90;53.90
27266;DHT22;14766;51.380;13.762;2023-05-07T14:47:15;15.80;54.00
27266;DHT22;14766;51.380;13.762;2023-05-07T14:49:45;15.80;54.10
27266;DHT22;14766;51.380;13.762;2023-05-07T14:52:12;15.80;54.30
27266;DHT22;14766;51.380;13.762;2023-05-07T14:54:39;15.90;54.10
27266;DHT22;14766;51.380;13.762;2023-05-07T14:57:09;15.90;53.70
27266;DHT22;14766;51.380;13.762;2023-05-07T14:59:37;15.90;53.50
27266;DHT22;14766;51.380;13.762;2023-05-07T15:02:06;15.90;53.50
27266;DHT22;14766;51.380;13.762;2023-05-07T15:04:36;15.90;53.80
27266;DHT22;14766;51.380;13.762;2023-05-07T15:07:04;15.90;54.00
27266;DHT22;14766;51.380;13.762;2023-05-07T15:09:32;15.90;53.70
27266;DHT22;14766;51.380;13.762;2023-05-07T15:11:59;15.90;53.60
27266;DHT22;14766;51.380;13.762;2023-05-07T15:14:26;15.90;53.90
27266;DHT22;14766;51.380;13.762;2023-05-07T15:16:53;15.90;54.10
27266;DHT22;14766;51.380;13.762;2023-05-07T15:19:21;15.90;54.30
27266;DHT22;14766;51.380;13.762;2023-05-07T15:21:49;15.90;54.20
27266;DHT22;14766;51.380;13.762;2023-05-07T15:24:16;15.90;54.10
27266;DHT22;14766;51.380;13.762;2023-05-07T15:26:42;15.90;54.00
27266;DHT22;14766;51.380;13.762;2023-05-07T15:29:10;15.80;53.90
27266;DHT22;14766;51.380;13.762;2023-05-07T15:31:37;15.80;53.80
27266;DHT22;14766;51.380;13.762;2023-05-07T15:34:06;15.80;53.80
27266;DHT22;14766;51.380;13.762;2023-05-07T15:36:33;15.70;53.80
27266;DHT22;14766;51.380;13.762;2023-05-07T15:39:00;15.70;53.90
27266;DHT22;14766;51.380;13.762;2023-05-07T15:41:29;15.70;53.70
27266;DHT22;14766;51.380;13.762;2023-05-07T15:43:56;15.70;53.90
27266;DHT22;14766;51.380;13.762;2023-05-07T15:46:24;15.60;54.00
27266;DHT22;14766;51.380;13.762;2023-05-07T15:48:52;15.70;54.20